Time;durP1;ratioP1;P1;durP2;ratioP2;P2;SDS_P1;SDS_P2;PMS_P1;PMS_P2;Temp;Humidity;BMP_temperature;BMP_pressure;BME280_temperature;BME280_humidity;BME280_pressure;Samples;Min_cycle;Max_cycle;Signal;HPM_P1;HPM_P2
2024/04/07 00:00:26;;;;;;;;;17.50;17.50;;;;;13.15;100.00;99849.56;6275817;20;2829491;-47
2024/04/07 00:02:54;;;;;;;;;17.50;17.50;;;;;12.90;100.00;99853.09;6277200;20;2824246;-48
2024/04/07 00:05:22;;;;;;;;;21.50;21.50;;;;;13.24;100.00;99853.44;6276336;20;2834765;-46
2024/04/07 00:07:49;;;;;;;;;19.00;19.00;;;;;13.28;100.00;99860.38;6273346;20;2831571;-48
2024/04/07 00:10:17;;;;;;;;;25.50;23.50;;;;;12.87;100.00;99872.16;6277086;20;2852319;-47
2024/04/07 00:12:44;;;;;;;;;22.33;21.00;;;;;13.00;100.00;99874.88;6275963;20;3577343;-46
2024/04/07 00:15:12;;;;;;;;;19.00;19.00;;;;;13.41;100.00;99873.88;6273683;20;2831533;-48
2024/04/07 00:17:39;;;;;;;;;25.00;21.00;;;;;13.21;100.00;99872.53;6273993;20;2835765;-47
2024/04/07 00:20:07;;;;;;;;;20.00;20.00;;;;;13.41;100.00;99879.25;6276533;20;2844016;-47
2024/04/07 00:22:35;;;;;;;;;20.67;20.67;;;;;13.23;100.00;99875.13;6273502;20;3578420;-47
2024/04/07 00:25:04;;;;;;;;;24.50;23.00;;;;;12.85;100.00;99882.19;6273566;20;2846152;-48
2024/04/07 00:27:32;;;;;;;;;23.67;21.33;;;;;12.82;100.00;99887.78;6275853;20;2851104;-47
2024/04/07 00:30:00;;;;;;;;;23.50;22.50;;;;;12.99;100.00;99885.78;6309715;20;2834827;-46
2024/04/07 00:32:27;;;;;;;;;26.50;23.50;;;;;12.51;100.00;99887.16;6277842;20;2844001;-47
2024/04/07 00:34:55;;;;;;;;;22.00;19.00;;;;;12.89;100.00;99886.38;6274211;20;2834702;-47
2024/04/07 00:37:25;;;;;;;;;20.50;20.50;;;;;12.86;100.00;99892.00;6273459;20;2837937;-49
2024/04/07 00:39:53;;;;;;;;;19.33;18.00;;;;;12.85;100.00;99886.69;6271790;20;3575423;-46
2024/04/07 00:42:20;;;;;;;;;20.00;18.50;;;;;12.65;100.00;99885.34;6274380;20;2848307;-51
2024/04/07 00:44:49;;;;;;;;;28.33;26.00;;;;;12.49;100.00;99881.00;6274904;20;2850535;-46
2024/04/07 00:47:18;;;;;;;;;33.00;28.33;;;;;12.39;100.00;99885.25;6305846;20;2840869;-48
2024/04/07 00:49:47;;;;;;;;;22.33;21.33;;;;;12.25;100.00;99882.63;6292499;20;3573168;-48
2024/04/07 00:52:15;;;;;;;;;21.00;19.50;;;;;12.37;100.00;99886.31;6272704;20;2827399;-48
2024/04/07 00:54:43;;;;;;;;;18.00;18.00;;;;;12.87;100.00;99890.16;6274083;20;2827369;-48
2024/04/07 00:57:12;;;;;;;;;17.50;17.00;;;;;12.78;100.00;99894.34;6274653;20;2823256;-49
2024/04/07 00:59:40;;;;;;;;;18.00;15.50;;;;;12.36;100.00;99896.22;6273645;20;2831555;-48
2024/04/07 01:02:08;;;;;;;;;18.50;17.50;;;;;12.49;100.00;99886.38;6274414;20;2831758;-47
2024/04/07 01:04:36;;;;;;;;;17.50;16.50;;;;;12.60;100.00;99893.75;6273382;20;2828437;-47
2024/04/07 01:07:04;;;;;;;;;19.00;17.00;;;;;12.45;100.00;99892.06;6274997;20;2831583;-47
2024/04/07 01:09:32;;;;;;;;;18.50;17.00;;;;;12.19;100.00;99893.75;6274172;20;2832603;-48
2024/04/07 01:12:09;;;;;;;;;18.33;18.33;;;;;12.39;100.00;99889.78;6276761;20;3568021;-48
2024/04/07 01:14:37;;;;;;;;;20.00;18.00;;;;;12.55;100.00;99889.63;6304869;20;2822204;-47
2024/04/07 01:17:07;;;;;;;;;18.00;17.00;;;;;12.28;100.00;99883.25;6273520;20;2836738;-47
2024/04/07 01:19:35;;;;;;;;;4.50;4.50;;;;;12.20;100.00;99892.81;6290574;20;1812940;-48
2024/04/07 01:22:03;;;;;;;;;18.50;18.50;;;;;12.08;100.00;99886.38;6305654;20;2835696;-47
2024/04/07 01:24:30;;;;;;;;;24.33;22.33;;;;;12.50;100.00;99885.41;6276264;20;3577398;-48
2024/04/07 01:26:58;;;;;;;;;21.00;19.00;;;;;12.28;100.00;99874.34;6275907;20;3579405;-47
2024/04/07 01:29:25;;;;;;;;;21.50;21.00;;;;;12.06;100.00;99875.72;6269988;20;2834776;-47
2024/04/07 01:31:53;;;;;;;;;13.33;13.00;;;;;12.09;100.00;99874.69;6273116;20;3505486;-48
2024/04/07 01:34:20;;;;;;;;;21.33;20.00;;;;;11.92;100.00;99869.50;6306763;20;3569118;-47
2024/04/07 01:36:49;;;;;;;;;21.00;21.00;;;;;12.04;100.00;99869.59;6270519;20;2847215;-48
2024/04/07 01:39:16;;;;;;;;;23.00;20.50;;;;;11.89;100.00;99867.00;6272245;20;2844496;-47
2024/04/07 01:41:44;;;;;;;;;20.50;19.00;;;;;11.98;100.00;99874.47;6274680;20;2833855;-48
2024/04/07 01:44:12;;;;;;;;;18.33;18.33;;;;;12.00;100.00;99870.72;6274274;20;2832606;-47
2024/04/07 01:46:39;;;;;;;;;21.00;19.33;;;;;12.00;100.00;99872.56;6308286;20;3561779;-47
2024/04/07 01:49:07;;;;;;;;;22.00;19.50;;;;;12.24;100.00;99880.88;6303953;20;2833774;-49
2024/04/07 01:51:34;;;;;;;;;19.00;16.50;;;;;11.91;100.00;99883.94;6275881;20;2833646;-48
2024/04/07 01:54:02;;;;;;;;;20.00;18.00;;;;;11.90;100.00;99883.06;6272211;20;2833745;-48
2024/04/07 01:56:30;;;;;;;;;22.00;22.00;;;;;11.94;100.00;99876.50;6269398;20;2839974;-48
2024/04/07 01:58:57;;;;;;;;;22.00;20.50;;;;;12.12;100.00;99873.63;6269605;20;2500262;-47
2024/04/07 02:01:23;;;;;;;;;18.50;18.50;;;;;11.83;100.00;99879.00;6271697;20;2500282;-47
2024/04/07 02:03:52;;;;;;;;;22.00;21.00;;;;;12.01;100.00;99885.06;6272761;20;2844123;-46
2024/04/07 02:06:19;;;;;;;;;23.33;20.67;;;;;12.24;100.00;99880.88;6306006;20;3580592;-47
2024/04/07 02:08:47;;;;;;;;;21.33;21.00;;;;;12.46;100.00;99891.97;6306000;20;3585704;-49
2024/04/07 02:11:14;;;;;;;;;22.00;19.50;;;;;12.26;100.00;99893.25;6270262;20;2832576;-47
2024/04/07 02:13:42;;;;;;;;;19.00;19.00;;;;;12.24;100.00;99883.56;6277560;20;3577362;-47
2024/04/07 02:16:10;;;;;;;;;21.50;19.00;;;;;12.03;100.00;99885.81;6271379;20;2831575;-50
2024/04/07 02:18:37;;;;;;;;;19.50;19.50;;;;;11.78;100.00;99878.44;6272276;20;2838780;-47
2024/04/07 02:21:05;;;;;;;;;22.00;22.00;;;;;11.90;100.00;99880.38;6272475;20;2844026;-46
2024/04/07 02:23:33;;;;;;;;;24.00;24.00;;;;;11.89;100.00;99881.31;6273782;20;2839952;-47
2024/04/07 02:26:01;;;;;;;;;20.00;17.50;;;;;12.25;100.00;99882.63;6271050;20;2821251;-48
2024/04/07 02:28:28;;;;;;;;;21.50;21.50;;;;;11.82;100.00;99874.56;6270317;20;2838868;-47
2024/04/07 02:30:56;;;;;;;;;22.50;22.50;;;;;11.85;100.00;99869.03;6273259;20;2844023;-47
2024/04/07 02:33:25;;;;;;;;;23.67;22.00;;;;;11.63;100.00;99873.03;6273839;20;2849313;-46
2024/04/07 02:35:59;;;;;;;;;23.50;22.00;;;;;11.63;100.00;99875.72;6301594;20;2866955;-47
2024/04/07 02:38:26;;;;;;;;;20.50;19.50;;;;;11.63;100.00;99881.09;6271071;20;2831490;-50
2024/04/07 02:40:54;;;;;;;;;17.50;17.50;;;;;11.25;100.00;99870.06;6270588;20;2821127;-48
2024/04/07 02:43:21;;;;;;;;;19.00;19.00;;;;;11.15;100.00;99869.75;6272107;20;2850254;-48
2024/04/07 02:48:35;;;;;;;;;25.00;21.00;;;;;11.59;100.00;99874.22;6268240;20;2715685;-48
2024/04/07 02:51:02;;;;;;;;;21.00;19.00;;;;;11.85;100.00;99877.94;6305651;20;2833601;-48
2024/04/07 02:53:31;;;;;;;;;27.33;22.67;;;;;11.58;100.00;99875.16;6299996;20;2849389;-48
2024/04/07 02:55:58;;;;;;;;;18.00;18.00;;;;;11.51;100.00;99868.44;6302009;20;3577485;-48
2024/04/07 02:58:26;;;;;;;;;19.00;19.00;;;;;11.60;100.00;99873.25;6269496;20;2829551;-47
2024/04/07 03:01:04;;;;;;;;;23.50;22.00;;;;;11.42;100.00;99869.00;6272730;20;2846141;-47
2024/04/07 03:03:33;;;;;;;;;23.00;21.00;;;;;11.28;100.00;99869.00;6271323;20;2836806;-46
2024/04/07 03:06:09;;;;;;;;;24.00;20.33;;;;;11.25;100.00;99871.91;6301800;20;3576335;-47
2024/04/07 03:08:38;;;;;;;;;20.00;19.50;;;;;11.82;100.00;99882.63;6267612;20;2826371;-49
2024/04/07 03:11:07;;;;;;;;;20.50;20.00;;;;;11.54;100.00;99887.06;6270827;20;2837775;-49
2024/04/07 03:13:35;;;;;;;;;22.00;21.00;;;;;11.17;100.00;99880.44;6271187;20;2843016;-47
2024/04/07 03:16:15;;;;;;;;;22.00;21.00;;;;;11.08;100.00;99895.25;6273321;20;2844090;-47
2024/04/07 03:18:42;;;;;;;;;24.00;23.00;;;;;11.23;100.00;99889.94;6275089;20;2884176;-48
2024/04/07 03:21:10;;;;;;;;;21.67;21.67;;;;;11.07;100.00;99900.75;6276276;20;2843057;-48
2024/04/07 03:23:38;;;;;;;;;24.33;24.33;;;;;10.84;100.00;99904.78;6309726;20;3583661;-48
2024/04/07 03:26:06;;;;;;;;;27.33;25.67;;;;;11.13;100.00;99909.28;6275679;20;2855527;-47
2024/04/07 03:28:34;;;;;;;;;27.67;26.33;;;;;10.71;100.00;99902.81;6309509;20;3604435;-46
2024/04/07 03:31:03;;;;;;;;;30.00;29.33;;;;;10.97;100.00;99903.13;6277633;20;2852452;-47
2024/04/07 03:33:35;;;;;;;;;32.00;30.00;;;;;11.06;100.00;99907.06;6308886;20;3599255;-47
2024/04/07 03:36:04;;;;;;;;;32.33;29.67;;;;;10.83;100.00;99906.63;6275788;20;2845081;-46
2024/04/07 03:38:32;;;;;;;;;30.00;28.67;;;;;11.38;100.00;99907.81;6307749;20;3614834;-46
2024/04/07 03:41:03;;;;;;;;;22.33;21.67;;;;;11.38;100.00;99910.50;6308839;20;3591051;-47
2024/04/07 03:43:33;;;;;;;;;26.00;25.33;;;;;11.17;100.00;99910.84;6272686;20;2862928;-49
2024/04/07 03:46:03;;;;;;;;;25.67;24.00;;;;;11.06;100.00;99912.44;6306917;20;2853560;-47
2024/04/07 03:48:30;;;;;;;;;26.00;26.00;;;;;11.32;100.00;99908.16;6308021;20;3594141;-48
2024/04/07 03:50:58;;;;;;;;;24.33;24.33;;;;;11.37;100.00;99915.03;6277203;20;3598202;-48
2024/04/07 03:53:29;;;;;;;;;27.50;25.50;;;;;11.29;100.00;99919.13;6275847;20;3479451;-48
2024/04/07 03:55:57;;;;;;;;;24.00;22.67;;;;;11.09;100.00;99921.19;6305462;20;2851393;-50
2024/04/07 03:58:25;;;;;;;;;27.67;26.67;;;;;11.29;100.00;99933.41;6306014;20;3583590;-48
2024/04/07 04:00:53;;;;;;;;;27.00;27.00;;;;;11.39;100.00;99936.41;6273863;20;2856734;-48
2024/04/07 04:03:20;;;;;;;;;29.33;26.33;;;;;11.31;100.00;99936.03;6310459;20;3609682;-48
2024/04/07 04:05:55;;;;;;;;;26.00;26.00;;;;;10.98;100.00;99931.72;6276740;20;3579621;-49
2024/04/07 04:08:22;;;;;;;;;27.00;25.00;;;;;11.21;100.00;99936.56;6272556;20;2854456;-53
2024/04/07 04:10:51;;;;;;;;;26.33;24.00;;;;;10.85;100.00;99946.81;6277395;20;2851495;-52
2024/04/07 04:13:19;;;;;;;;;22.67;20.67;;;;;10.90;100.00;99945.59;6307664;20;2843026;-52
2024/04/07 04:15:46;;;;;;;;;26.00;24.67;;;;;10.85;100.00;99949.50;6310840;20;3595057;-50
2024/04/07 04:18:15;;;;;;;;;27.00;26.00;;;;;11.21;100.00;99952.69;6271942;20;2858831;-52
2024/04/07 04:20:43;;;;;;;;;25.33;25.00;;;;;11.44;100.00;99966.56;6303757;20;2850367;-49
2024/04/07 04:23:10;;;;;;;;;26.00;25.00;;;;;11.60;100.00;99972.75;6309783;20;3582645;-49
2024/04/07 04:25:39;;;;;;;;;25.00;24.33;;;;;11.61;100.00;99974.50;6273028;20;3598072;-51
2024/04/07 04:28:07;;;;;;;;;25.67;22.67;;;;;11.62;100.00;99978.03;6305641;20;2852466;-48
2024/04/07 04:30:34;;;;;;;;;21.50;20.50;;;;;11.71;100.00;99990.06;6306193;20;2835741;-50
2024/04/07 04:33:03;;;;;;;;;25.00;25.00;;;;;11.67;100.00;99989.38;6275863;20;3593079;-47
2024/04/07 04:35:35;;;;;;;;;23.50;22.00;;;;;11.73;100.00;99993.53;6304876;20;2836773;-48
2024/04/07 04:38:03;;;;;;;;;23.50;22.00;;;;;11.94;100.00;99986.84;6272772;20;2832621;-48
2024/04/07 04:40:31;;;;;;;;;21.00;21.00;;;;;12.18;100.00;99988.94;6274635;20;2837927;-47
2024/04/07 04:42:58;;;;;;;;;22.00;21.00;;;;;12.26;100.00;99995.56;6275447;20;2867981;-48
2024/04/07 04:45:26;;;;;;;;;30.00;26.00;;;;;12.04;100.00;99990.69;6273863;20;2849397;-47
2024/04/07 04:47:55;;;;;;;;;27.33;23.00;;;;;12.03;100.00;99994.34;6305457;20;2843582;-46
2024/04/07 04:50:22;;;;;;;;;22.33;21.33;;;;;11.74;100.00;99997.94;6307472;20;3577386;-47
2024/04/07 04:52:50;;;;;;;;;22.00;21.00;;;;;11.70;100.00;100007.16;6273897;20;2847629;-47
2024/04/07 04:55:17;;;;;;;;;23.50;22.00;;;;;11.94;100.00;100005.69;6274200;20;2839913;-50
2024/04/07 04:57:48;;;;;;;;;18.00;18.00;;;;;11.83;100.00;100013.53;6271615;20;2832602;-47
2024/04/07 05:00:16;;;;;;;;;26.33;23.00;;;;;11.91;100.00;100008.56;6276155;20;2854617;-46
2024/04/07 05:02:44;;;;;;;;;5.50;5.25;;;;;12.35;100.00;100023.75;6326670;20;1810840;-47
2024/04/07 05:05:12;;;;;;;;;21.50;21.50;;;;;12.68;100.00;100020.72;6304683;20;2846118;-47
2024/04/07 05:07:40;;;;;;;;;21.67;21.67;;;;;13.13;100.00;100025.88;6306053;20;3572264;-46
2024/04/07 05:10:08;;;;;;;;;25.33;21.33;;;;;13.35;100.00;100015.41;6274869;20;3589919;-46
2024/04/07 05:12:36;;;;;;;;;21.67;21.67;;;;;13.59;100.00;100014.72;6273920;20;3577407;-48
2024/04/07 05:15:05;;;;;;;;;23.00;22.33;;;;;13.13;100.00;100015.94;6271381;20;2846345;-47
2024/04/07 05:17:33;;;;;;;;;19.00;19.00;;;;;13.87;100.00;100021.72;6306828;20;3575376;-49
2024/04/07 05:20:01;;;;;;;;;19.00;18.00;;;;;13.75;100.00;100020.75;6273858;20;3457599;-48
2024/04/07 05:22:29;;;;;;;;;21.00;20.67;;;;;13.23;100.00;100016.19;6307868;20;3582560;-47
2024/04/07 05:24:56;;;;;;;;;21.00;20.00;;;;;13.32;100.00;100028.22;6270620;20;2838828;-47
2024/04/07 05:27:24;;;;;;;;;17.50;17.50;;;;;14.04;100.00;100023.25;6274360;20;2826313;-49
2024/04/07 05:29:52;;;;;;;;;20.50;20.50;;;;;14.56;100.00;100035.78;6272916;20;2842000;-48
2024/04/07 05:32:19;;;;;;;;;20.67;20.00;;;;;14.65;100.00;100029.69;6277566;20;3564947;-49
2024/04/07 05:34:51;;;;;;;;;23.33;22.67;;;;;14.57;100.00;100032.09;6271188;20;3584767;-48
2024/04/07 05:37:18;;;;;;;;;23.67;21.33;;;;;14.70;100.00;100048.28;6302976;20;3579514;-49
2024/04/07 05:39:51;;;;;;;;;20.00;20.00;;;;;15.30;100.00;100050.13;6267938;20;2833626;-48
2024/04/07 05:42:19;;;;;;;;;27.33;23.67;;;;;15.46;100.00;100044.41;6306562;20;3576310;-47
2024/04/07 05:44:46;;;;;;;;;22.50;21.50;;;;;15.61;100.00;100044.19;6276702;20;2621177;-48
2024/04/07 05:47:14;;;;;;;;;22.00;22.00;;;;;16.25;100.00;100050.03;6275918;20;3585695;-48
2024/04/07 05:49:42;;;;;;;;;23.67;23.67;;;;;16.06;100.00;100047.03;6274658;20;3585721;-51
2024/04/07 05:52:10;;;;;;;;;24.00;24.00;;;;;15.52;100.00;100046.63;6275662;20;3583784;-49
2024/04/07 05:54:37;;;;;;;;;24.33;21.67;;;;;15.95;100.00;100042.47;6275541;20;3578376;-49
2024/04/07 05:57:05;;;;;;;;;27.00;22.67;;;;;18.00;88.98;100046.41;6272519;20;2847225;-47
2024/04/07 05:59:33;;;;;;;;;23.33;22.33;;;;;17.56;86.79;100053.78;6302697;20;3587786;-47
2024/04/07 06:02:00;;;;;;;;;25.33;22.00;;;;;16.89;96.51;100061.13;6276525;20;3591958;-48
2024/04/07 06:04:29;;;;;;;;;25.33;23.67;;;;;17.23;98.77;100052.91;6272263;20;3589987;-47
2024/04/07 06:06:56;;;;;;;;;25.67;25.67;;;;;18.27;92.46;100061.31;6307030;20;3585664;-47
2024/04/07 06:09:25;;;;;;;;;26.33;23.00;;;;;17.20;97.80;100063.19;6272089;20;3573168;-46
2024/04/07 06:11:52;;;;;;;;;27.33;23.00;;;;;16.19;100.00;100061.34;6305891;20;3589875;-49
2024/04/07 06:14:20;;;;;;;;;27.33;27.33;;;;;16.10;100.00;100062.94;6275505;20;3585819;-48
2024/04/07 06:16:47;;;;;;;;;27.00;25.67;;;;;16.06;100.00;100063.28;6275257;20;3604440;-47
2024/04/07 06:19:14;;;;;;;;;27.00;25.50;;;;;15.88;100.00;100060.22;6276083;20;3489852;-48
2024/04/07 06:21:42;;;;;;;;;26.67;24.33;;;;;16.16;100.00;100061.59;6305553;20;3600455;-47
2024/04/07 06:24:09;;;;;;;;;25.00;25.00;;;;;15.97;100.00;100070.31;6275349;20;3606539;-49
2024/04/07 06:26:37;;;;;;;;;28.67;26.00;;;;;16.18;100.00;100063.19;6274193;20;3594234;-48
2024/04/07 06:29:04;;;;;;;;;24.33;24.33;;;;;16.53;100.00;100070.38;6274188;20;3587763;-47
2024/04/07 06:31:32;;;;;;;;;25.00;24.00;;;;;16.67;100.00;100066.56;6274775;20;3594191;-48
2024/04/07 06:33:59;;;;;;;;;26.67;25.67;;;;;16.75;100.00;100068.66;6274656;20;3594042;-47
2024/04/07 06:36:27;;;;;;;;;27.00;22.33;;;;;16.96;100.00;100077.78;6273521;20;3587772;-46
2024/04/07 06:38:55;;;;;;;;;25.67;24.33;;;;;17.11;99.93;100081.06;6274602;20;3600267;-45
2024/04/07 06:41:22;;;;;;;;;25.67;23.33;;;;;17.22;99.61;100072.91;6277901;20;3587783;-45
2024/04/07 06:43:50;;;;;;;;;23.33;22.67;;;;;17.01;100.00;100072.84;6276205;20;3581579;-45
2024/04/07 06:46:17;;;;;;;;;29.00;26.00;;;;;16.99;100.00;100076.66;6276029;20;3606518;-47
2024/04/07 06:48:45;;;;;;;;;26.67;25.67;;;;;17.33;97.13;100081.00;6274002;20;3591942;-45
2024/04/07 06:51:12;;;;;;;;;23.67;22.33;;;;;18.01;95.51;100086.19;6265005;20;3581855;-46
2024/04/07 06:53:39;;;;;;;;;27.00;22.67;;;;;18.59;91.43;100091.13;6274449;20;3602411;-44
2024/04/07 06:56:07;;;;;;;;;29.00;28.00;;;;;17.81;95.00;100085.19;6275417;20;3605554;-49
2024/04/07 06:58:34;;;;;;;;;21.00;21.00;;;;;18.10;90.54;100098.13;6274807;20;3575265;-45
2024/04/07 07:01:02;;;;;;;;;24.00;22.33;;;;;18.29;92.64;100102.81;6274684;20;3584737;-45
2024/04/07 07:03:30;;;;;;;;;25.00;23.00;;;;;19.00;86.34;100100.16;6274913;20;3594509;-45
2024/04/07 07:05:58;;;;;;;;;23.67;23.67;;;;;18.64;85.58;100103.31;6277487;20;3605164;-47
2024/04/07 07:08:26;;;;;;;;;25.67;25.67;;;;;18.39;89.10;100109.16;6274282;20;3598177;-46
2024/04/07 07:11:00;;;;;;;;;25.00;24.00;;;;;18.55;86.87;100111.41;6277242;20;3600327;-47
2024/04/07 07:13:30;;;;;;;;;22.67;22.67;;;;;18.92;86.35;100119.91;6271292;20;3588904;-46
2024/04/07 07:15:58;;;;;;;;;25.33;24.00;;;;;19.24;85.04;100114.25;6274779;20;3587788;-47
2024/04/07 07:18:29;;;;;;;;;22.33;22.00;;;;;19.29;81.90;100117.44;6271224;20;3585750;-49
2024/04/07 07:20:57;;;;;;;;;23.33;21.00;;;;;20.29;78.62;100127.25;6271661;20;2844119;-47
2024/04/07 07:23:26;;;;;;;;;24.67;22.00;;;;;19.36;81.81;100123.19;6303457;20;3591925;-48
2024/04/07 07:25:54;;;;;;;;;25.33;22.00;;;;;19.34;81.84;100133.34;6302783;20;3573270;-46
2024/04/07 07:28:22;;;;;;;;;20.00;20.00;;;;;19.10;82.73;100132.88;6305817;20;3578475;-46
2024/04/07 07:30:49;;;;;;;;;16.00;16.00;;;;;20.15;80.55;100130.44;6272956;20;2825385;-48
2024/04/07 07:33:16;;;;;;;;;21.50;21.50;;;;;19.71;80.74;100130.00;6273943;20;2841939;-46
2024/04/07 07:35:44;;;;;;;;;21.33;21.33;;;;;19.90;79.25;100127.28;6272611;20;3580560;-47
2024/04/07 07:38:11;;;;;;;;;21.33;20.00;;;;;19.85;80.18;100140.50;6275606;20;3547238;-46
2024/04/07 07:40:40;;;;;;;;;24.67;22.00;;;;;19.57;82.20;100141.28;6273190;20;3585889;-45
2024/04/07 07:43:08;;;;;;;;;22.00;21.00;;;;;19.36;81.31;100144.97;6273263;20;3580590;-46
2024/04/07 07:45:35;;;;;;;;;21.67;21.67;;;;;20.04;77.73;100152.41;6276297;20;3582609;-46
2024/04/07 07:48:03;;;;;;;;;20.67;19.00;;;;;20.15;77.66;100152.25;6273915;20;3571304;-47
2024/04/07 07:50:31;;;;;;;;;19.00;18.00;;;;;20.10;77.47;100149.94;6272652;20;3565942;-46
2024/04/07 07:52:58;;;;;;;;;21.00;19.33;;;;;20.27;77.01;100156.53;6272635;20;3565995;-46
2024/04/07 07:55:26;;;;;;;;;15.50;15.50;;;;;20.81;74.21;100159.59;6269205;20;2820264;-48
2024/04/07 07:57:53;;;;;;;;;22.00;19.33;;;;;19.57;79.90;100152.19;6274030;20;3574240;-49
2024/04/07 08:00:23;;;;;;;;;22.67;21.00;;;;;19.72;78.26;100154.41;6271124;20;3581552;-48
2024/04/07 08:02:52;;;;;;;;;17.00;16.50;;;;;19.91;78.50;100144.50;6277770;20;2825321;-45
2024/04/07 08:05:20;;;;;;;;;19.00;19.00;;;;;20.56;77.03;100155.63;6275518;20;3571093;-46
2024/04/07 08:07:47;;;;;;;;;18.00;17.00;;;;;20.62;74.96;100160.53;6277936;20;2835735;-51
2024/04/07 08:10:15;;;;;;;;;20.00;16.50;;;;;21.45;72.61;100157.91;6279228;20;2833612;-48
2024/04/07 08:12:43;;;;;;;;;18.67;17.67;;;;;21.39;70.36;100153.06;6283336;20;3577452;-46
2024/04/07 08:15:11;;;;;;;;;14.00;14.00;;;;;20.56;73.20;100144.72;6276477;20;2803583;-48
2024/04/07 08:17:38;;;;;;;;;16.00;16.00;;;;;20.87;71.16;100152.69;6276082;20;2831549;-50
2024/04/07 08:20:07;;;;;;;;;17.00;16.00;;;;;21.65;68.69;100154.03;6281031;20;3555466;-47
2024/04/07 08:22:34;;;;;;;;;17.00;17.00;;;;;21.24;69.54;100156.25;6314569;20;3554432;-48
2024/04/07 08:25:05;;;;;;;;;20.67;18.67;;;;;20.82;72.13;100151.25;6280182;20;3554460;-45
2024/04/07 08:27:37;;;;;;;;;17.00;17.00;;;;;21.29;68.59;100157.69;6275710;20;2832712;-47
2024/04/07 08:30:05;;;;;;;;;13.00;13.00;;;;;21.09;69.15;100156.91;6278141;20;3534830;-46
2024/04/07 08:32:32;;;;;;;;;14.50;14.50;;;;;21.04;69.10;100160.09;6307748;20;2814925;-47
2024/04/07 08:34:59;;;;;;;;;14.67;14.00;;;;;21.33;66.24;100159.06;6276620;20;2485841;-50
2024/04/07 08:37:27;;;;;;;;;13.33;12.67;;;;;21.56;67.48;100165.88;6310237;20;3537753;-47
2024/04/07 08:39:54;;;;;;;;;15.33;13.67;;;;;22.23;64.63;100168.28;6310522;20;3547643;-46
2024/04/07 08:42:23;;;;;;;;;17.33;17.33;;;;;21.78;65.39;100164.59;6310819;20;3564891;-47
2024/04/07 08:44:52;;;;;;;;;18.33;16.33;;;;;22.46;65.16;100174.97;6278907;20;2483737;-48
2024/04/07 08:47:20;;;;;;;;;15.33;15.33;;;;;22.00;64.02;100168.72;6309696;20;2483634;-48
2024/04/07 08:49:52;;;;;;;;;14.00;13.67;;;;;22.46;63.68;100172.25;6311162;20;3539859;-46
2024/04/07 08:52:22;;;;;;;;;12.67;12.67;;;;;22.26;63.83;100159.75;6309293;20;3530464;-49
2024/04/07 08:54:50;;;;;;;;;11.00;11.00;;;;;21.66;65.09;100155.75;6310381;20;3514870;-45
2024/04/07 08:57:18;;;;;;;;;13.67;13.67;;;;;22.18;63.72;100159.66;6313097;20;3537856;-46
2024/04/07 08:59:52;;;;;;;;;14.00;14.00;;;;;21.91;63.97;100156.00;6308244;20;2483634;-45
2024/04/07 09:02:20;;;;;;;;;13.00;13.00;;;;;23.15;61.41;100154.03;6309208;20;3514859;-46
2024/04/07 09:04:48;;;;;;;;;9.33;9.33;;;;;22.60;61.49;100153.53;6275639;20;3484738;-49
2024/04/07 09:07:15;;;;;;;;;12.33;12.00;;;;;22.37;61.09;100154.03;6311478;20;3526290;-41
2024/04/07 09:09:43;;;;;;;;;14.67;14.67;;;;;22.10;60.66;100161.31;6309005;20;3535747;-41
2024/04/07 09:12:10;;;;;;;;;10.67;10.67;;;;;22.69;60.98;100147.06;6308405;20;3513824;-41
2024/04/07 09:14:44;;;;;;;;;14.67;14.67;;;;;22.69;62.08;100153.41;6276616;20;3548203;-41
2024/04/07 09:17:12;;;;;;;;;13.33;12.00;;;;;22.72;58.71;100147.63;6278400;20;2485766;-41
2024/04/07 09:19:39;;;;;;;;;13.00;12.00;;;;;22.38;62.20;100155.78;6306442;20;2485716;-40
2024/04/07 09:22:08;;;;;;;;;10.33;10.33;;;;;23.11;59.90;100146.31;6307856;20;3513868;-40
2024/04/07 09:24:38;;;;;;;;;10.67;9.33;;;;;22.06;60.15;100148.09;6314231;20;2773230;-44
2024/04/07 09:27:09;;;;;;;;;11.33;11.33;;;;;22.83;58.57;100151.09;6311934;20;2483741;-43
2024/04/07 09:29:41;;;;;;;;;9.67;9.67;;;;;22.85;57.04;100151.78;6305726;20;3492969;-43
2024/04/07 09:32:09;;;;;;;;;10.67;10.67;;;;;22.76;57.26;100142.66;6308146;20;3505476;-43
2024/04/07 09:34:36;;;;;;;;;8.00;8.00;;;;;23.38;55.16;100146.09;6311770;20;2746115;-43
2024/04/07 09:37:05;;;;;;;;;11.00;10.00;;;;;23.82;55.93;100154.09;6311376;20;2483706;-41
2024/04/07 09:39:32;;;;;;;;;9.00;9.00;;;;;23.04;57.50;100151.59;6305898;20;2760728;-44
2024/04/07 09:42:02;;;;;;;;;7.67;7.67;;;;;23.64;54.75;100158.81;6308827;20;2748265;-45
2024/04/07 09:44:36;;;;;;;;;8.67;8.00;;;;;23.76;55.52;100159.41;6312426;20;2751355;-39
2024/04/07 09:47:07;;;;;;;;;9.33;9.00;;;;;23.09;54.65;100148.34;6306756;20;2755576;-45
2024/04/07 09:49:40;;;;;;;;;10.00;8.00;;;;;23.82;54.03;100159.59;6303406;20;3484696;-40
2024/04/07 09:52:08;;;;;;;;;8.67;8.67;;;;;23.94;52.90;100164.75;6315821;20;2763158;-40
2024/04/07 09:54:46;;;;;;;;;8.00;8.00;;;;;24.23;52.28;100162.38;6308335;20;2752473;-42
2024/04/07 09:57:17;;;;;;;;;6.00;6.00;;;;;24.19;51.96;100160.13;6312088;20;2732595;-46
2024/04/07 09:59:46;;;;;;;;;8.67;7.00;;;;;23.90;52.77;100157.88;6305603;20;2750330;-41
2024/04/07 10:02:14;;;;;;;;;7.00;7.00;;;;;24.30;50.77;100157.94;6334602;20;2737785;-43
2024/04/07 10:04:43;;;;;;;;;7.00;7.00;;;;;23.80;52.55;100167.16;6276572;20;2740057;-44
2024/04/07 10:07:12;;;;;;;;;9.00;7.00;;;;;24.60;52.27;100163.75;6316650;20;2745176;-46
2024/04/07 10:09:42;;;;;;;;;6.67;6.67;;;;;23.81;51.96;100166.09;6306894;20;2742134;-44
2024/04/07 10:12:09;;;;;;;;;7.67;5.00;;;;;24.59;50.24;100163.91;6309470;20;2735704;-46
2024/04/07 10:14:41;;;;;;;;;9.00;9.00;;;;;25.14;49.57;100163.94;6308715;20;2746261;-47
2024/04/07 10:17:10;;;;;;;;;7.00;7.00;;;;;24.44;49.49;100161.00;6308852;20;2744090;-46
2024/04/07 10:19:45;;;;;;;;;9.33;7.00;;;;;24.54;48.92;100156.22;6313685;20;2770253;-43
2024/04/07 10:22:17;;;;;;;;;6.67;6.67;;;;;25.33;47.99;100157.22;6317383;20;2748277;-43
2024/04/07 10:24:51;;;;;;;;;6.33;6.33;;;;;25.00;49.52;100150.97;6308726;20;2754494;-46
2024/04/07 10:27:24;;;;;;;;;7.00;7.00;;;;;24.68;49.15;100151.91;6314493;20;2745202;-55
2024/04/07 10:29:55;;;;;;;;;6.20;6.20;;;;;24.22;52.20;100151.56;6334160;20;2752407;-55
2024/04/07 10:32:29;;;;;;;;;8.33;7.33;;;;;24.41;50.53;100151.22;6282063;20;2752443;-58
2024/04/07 10:35:11;;;;;;;;;6.00;6.00;;;;;24.46;49.25;100147.97;6308731;20;2748225;-58
2024/04/07 10:37:45;;;;;;;;;8.00;8.00;;;;;24.74;50.63;100149.31;6316836;20;2743092;-58
2024/04/07 10:40:17;;;;;;;;;6.00;6.00;;;;;24.90;48.76;100144.81;6316169;20;2750338;-59
2024/04/07 10:42:46;;;;;;;;;6.20;6.20;;;;;26.20;46.77;100145.19;6332260;20;2741966;-59
2024/04/07 10:45:13;;;;;;;;;7.33;7.33;;;;;24.95;48.45;100146.00;6278149;20;2747294;-58
2024/04/07 10:47:40;;;;;;;;;7.00;6.33;;;;;24.79;48.18;100147.94;6309647;20;2739863;-59
2024/04/07 10:50:08;;;;;;;;;6.33;6.33;;;;;24.57;49.92;100139.41;6316885;20;2750281;-56
2024/04/07 10:52:36;;;;;;;;;9.33;7.00;;;;;25.49;47.71;100144.41;6305807;20;2753512;-60
2024/04/07 10:55:04;;;;;;;;;8.33;8.33;;;;;25.52;47.19;100147.69;6305733;20;2746150;-60
2024/04/07 10:57:32;;;;;;;;;8.33;6.33;;;;;25.29;48.53;100150.38;6308501;20;2744115;-59
2024/04/07 11:00:00;;;;;;;;;7.00;7.00;;;;;24.79;48.73;100142.44;6312857;20;2748194;-57
2024/04/07 11:02:28;;;;;;;;;8.00;8.00;;;;;25.29;47.80;100138.53;6308576;20;2739971;-58